Time;durP1;ratioP1;P1;durP2;ratioP2;P2;SDS_P1;SDS_P2;PMS_P1;PMS_P2;Temp;Humidity;BMP_temperature;BMP_pressure;BME280_temperature;BME280_humidity;BME280_pressure;Samples;Min_cycle;Max_cycle;Signal;HPM_P1;HPM_P2
2022/08/14 00:01:21;;;;;;;8.73;5.55;;;22.40;99.90;;;;;;4999842;28;20046;-54
2022/08/14 00:03:46;;;;;;;8.23;5.55;;;22.30;99.90;;;;;;4997518;28;20078;-56
2022/08/14 00:06:12;;;;;;;8.05;5.60;;;22.40;99.90;;;;;;4998972;28;20054;-54
2022/08/14 00:08:37;;;;;;;8.68;5.90;;;22.30;99.90;;;;;;4998577;28;20058;-53
2022/08/14 00:11:03;;;;;;;7.68;5.40;;;22.30;99.90;;;;;;4998531;28;20543;-55
2022/08/14 00:13:29;;;;;;;10.25;6.25;;;22.30;99.90;;;;;;4999414;28;20046;-55
2022/08/14 00:15:58;;;;;;;8.82;5.90;;;22.20;99.90;;;;;;4988776;28;20102;-55
2022/08/14 00:18:26;;;;;;;9.90;6.03;;;22.30;99.90;;;;;;4980245;28;20047;-55
2022/08/14 00:20:52;;;;;;;8.88;6.10;;;22.20;99.90;;;;;;4977185;28;20047;-55
2022/08/14 00:23:18;;;;;;;8.10;5.85;;;22.10;99.90;;;;;;4979564;28;20628;-55
2022/08/14 00:25:47;;;;;;;9.38;6.38;;;22.10;99.90;;;;;;4979148;28;20043;-55
2022/08/14 00:28:14;;;;;;;8.98;6.32;;;22.10;99.90;;;;;;4978876;28;20058;-55
2022/08/14 00:30:40;;;;;;;9.80;6.20;;;22.00;99.90;;;;;;4978924;28;20180;-56
2022/08/14 00:33:06;;;;;;;9.45;6.40;;;22.00;99.90;;;;;;4978286;28;20046;-55
2022/08/14 00:35:32;;;;;;;10.85;7.28;;;22.00;99.90;;;;;;4980145;28;20061;-55
2022/08/14 00:37:58;;;;;;;9.35;6.78;;;22.00;99.90;;;;;;4984751;28;20092;-55
2022/08/14 00:40:25;;;;;;;8.77;6.97;;;21.90;99.90;;;;;;4998565;28;20153;-55
2022/08/14 00:42:51;;;;;;;9.98;7.32;;;21.90;99.90;;;;;;4998490;28;20047;-55
2022/08/14 00:45:17;;;;;;;11.60;7.28;;;21.90;99.90;;;;;;4998210;28;20049;-55
2022/08/14 00:47:45;;;;;;;10.45;6.57;;;21.90;99.90;;;;;;4999002;28;20046;-53
2022/08/14 00:50:16;;;;;;;10.93;7.35;;;22.00;99.90;;;;;;4997404;28;20875;-54
2022/08/14 00:52:44;;;;;;;9.02;6.68;;;21.90;99.90;;;;;;4999230;28;20118;-55
2022/08/14 00:55:10;;;;;;;11.23;7.53;;;21.80;99.90;;;;;;4997751;28;20123;-53
2022/08/14 00:57:37;;;;;;;9.98;7.60;;;21.90;99.90;;;;;;4998646;28;20034;-55
2022/08/14 01:00:14;;;;;;;11.15;7.95;;;21.80;99.90;;;;;;4998105;28;20070;-55
2022/08/14 01:02:43;;;;;;;10.88;7.93;;;21.80;99.90;;;;;;4997873;28;20050;-55
2022/08/14 01:05:22;;;;;;;10.88;7.57;;;21.80;99.90;;;;;;4999220;28;20046;-53
2022/08/14 01:07:50;;;;;;;10.25;8.20;;;21.80;99.90;;;;;;4997133;28;20080;-54
2022/08/14 01:10:16;;;;;;;11.27;7.90;;;21.80;99.90;;;;;;4998397;28;20061;-54
2022/08/14 01:12:42;;;;;;;10.30;8.00;;;21.70;99.90;;;;;;4998107;28;20053;-53
2022/08/14 01:15:09;;;;;;;11.13;8.65;;;21.80;99.90;;;;;;4996955;28;20042;-55
2022/08/14 01:23:10;;;;;;;11.32;8.57;;;21.70;99.90;;;;;;4982909;28;20584;-52
2022/08/14 01:25:37;;;;;;;14.03;8.80;;;21.70;99.90;;;;;;4982394;28;20071;-55
2022/08/14 01:28:03;;;;;;;12.68;8.85;;;21.50;99.90;;;;;;4982101;28;20051;-54
2022/08/14 01:30:31;;;;;;;11.15;8.82;;;21.50;99.90;;;;;;4983032;28;20047;-55
2022/08/14 01:32:57;;;;;;;12.93;9.23;;;21.50;99.90;;;;;;4981713;28;20042;-54
2022/08/14 01:35:27;;;;;;;10.82;8.23;;;21.50;99.90;;;;;;4983329;28;20047;-55
2022/08/14 01:37:53;;;;;;;13.10;9.60;;;21.40;99.90;;;;;;4986932;28;20030;-53
2022/08/14 01:40:23;;;;;;;11.65;8.57;;;21.40;99.90;;;;;;5002160;28;20078;-55
2022/08/14 01:42:49;;;;;;;10.40;8.75;;;21.40;99.90;;;;;;5000112;28;20039;-54
2022/08/14 01:45:15;;;;;;;11.73;9.70;;;21.40;99.90;;;;;;5000192;28;20601;-54
2022/08/14 01:47:40;;;;;;;11.40;9.38;;;21.40;99.90;;;;;;5002210;28;20101;-55
2022/08/14 01:50:08;;;;;;;11.90;9.13;;;21.50;99.90;;;;;;5000673;28;20231;-55
2022/08/14 01:52:35;;;;;;;11.80;9.02;;;21.50;99.90;;;;;;5002495;28;20062;-54
2022/08/14 01:55:07;;;;;;;12.63;9.18;;;21.40;99.90;;;;;;5000638;28;20050;-54
2022/08/14 01:57:36;;;;;;;11.95;9.73;;;21.40;99.90;;;;;;5001565;28;20053;-55
2022/08/14 02:00:07;;;;;;;16.00;10.80;;;21.40;99.90;;;;;;5001256;28;20061;-56
2022/08/14 02:02:33;;;;;;;12.23;10.20;;;21.40;99.90;;;;;;5000671;28;20114;-55
2022/08/14 02:04:59;;;;;;;14.20;9.85;;;21.30;99.90;;;;;;5001940;28;20517;-52
2022/08/14 02:07:25;;;;;;;12.38;10.10;;;21.30;99.90;;;;;;4999819;28;20054;-53
2022/08/14 02:09:50;;;;;;;12.20;9.65;;;21.30;99.90;;;;;;5001753;28;20161;-55
2022/08/14 02:12:17;;;;;;;13.50;10.05;;;21.30;99.90;;;;;;5000277;28;20061;-53
2022/08/14 02:14:42;;;;;;;14.80;10.52;;;21.30;99.90;;;;;;5001213;28;20050;-55
2022/08/14 02:17:08;;;;;;;13.52;10.73;;;21.20;99.90;;;;;;4996228;28;20049;-56
2022/08/14 02:19:34;;;;;;;12.35;10.45;;;21.20;99.90;;;;;;4979676;28;20053;-55
2022/08/14 02:22:02;;;;;;;13.07;10.85;;;21.20;99.90;;;;;;4980785;28;20050;-54
2022/08/14 02:24:28;;;;;;;14.18;11.32;;;21.20;99.90;;;;;;4980333;28;20050;-54
2022/08/14 02:26:58;;;;;;;13.65;10.55;;;21.20;99.90;;;;;;4979866;28;20074;-53
2022/08/14 02:29:26;;;;;;;12.63;10.80;;;21.20;99.90;;;;;;4980790;28;20038;-56
2022/08/14 02:31:54;;;;;;;12.98;10.50;;;21.10;99.90;;;;;;4981500;28;20043;-55
2022/08/14 02:34:21;;;;;;;13.25;11.52;;;21.10;99.90;;;;;;4981406;28;20042;-55
2022/08/14 02:36:50;;;;;;;14.05;10.65;;;21.10;99.90;;;;;;4980165;28;20047;-54
2022/08/14 02:39:17;;;;;;;13.60;10.18;;;21.20;99.90;;;;;;4999043;28;20046;-54
2022/08/14 02:41:43;;;;;;;13.80;11.18;;;21.10;99.90;;;;;;4999590;28;20042;-57
2022/08/14 02:44:11;;;;;;;12.82;10.88;;;21.10;99.90;;;;;;5001387;28;20043;-55
2022/08/14 02:46:40;;;;;;;12.70;10.70;;;21.10;99.90;;;;;;4998629;28;20081;-53
2022/08/14 02:49:06;;;;;;;12.48;10.07;;;21.20;99.90;;;;;;5000648;28;20442;-55
2022/08/14 02:51:35;;;;;;;14.20;11.25;;;21.10;99.90;;;;;;5000397;28;20049;-55
2022/08/14 02:54:01;;;;;;;13.05;11.27;;;21.10;99.90;;;;;;4998468;28;20045;-52
2022/08/14 02:56:28;;;;;;;16.05;12.07;;;21.10;99.90;;;;;;5001200;28;20057;-53
2022/08/14 02:58:55;;;;;;;13.18;10.85;;;21.00;99.90;;;;;;4999213;28;20046;-53
2022/08/14 03:01:23;;;;;;;13.90;11.90;;;21.00;99.90;;;;;;5001147;28;20049;-55
2022/08/14 03:03:50;;;;;;;13.85;12.30;;;21.00;99.90;;;;;;4998262;28;20054;-55
2022/08/14 03:06:19;;;;;;;13.13;11.13;;;21.00;99.90;;;;;;4999976;28;20525;-54
2022/08/14 03:08:45;;;;;;;13.80;12.25;;;21.00;99.90;;;;;;4999861;28;20214;-53
2022/08/14 03:11:12;;;;;;;14.55;11.90;;;20.90;99.90;;;;;;4999495;28;20133;-56
2022/08/14 03:13:40;;;;;;;14.20;11.88;;;21.00;99.90;;;;;;5000945;28;20046;-55
2022/08/14 03:16:09;;;;;;;13.68;12.13;;;21.00;99.90;;;;;;4989945;28;20072;-53
2022/08/14 03:18:40;;;;;;;15.07;12.07;;;20.90;99.90;;;;;;4980996;28;20039;-55
2022/08/14 03:21:08;;;;;;;14.18;12.38;;;20.90;99.90;;;;;;4980036;28;20047;-54
2022/08/14 03:23:35;;;;;;;13.07;11.70;;;20.80;99.90;;;;;;4980180;28;20039;-53
2022/08/14 03:26:02;;;;;;;15.25;12.40;;;20.90;99.90;;;;;;4980772;28;20050;-53
2022/08/14 03:28:29;;;;;;;13.88;11.63;;;20.80;99.90;;;;;;4979144;28;20042;-55
2022/08/14 03:30:56;;;;;;;15.15;12.13;;;20.70;99.90;;;;;;4979806;28;20082;-54
2022/08/14 03:33:22;;;;;;;14.60;11.98;;;20.80;99.90;;;;;;4977910;28;20540;-54
2022/08/14 03:35:50;;;;;;;14.73;12.35;;;20.80;99.90;;;;;;4980672;28;20039;-56
2022/08/14 03:38:17;;;;;;;14.88;12.48;;;20.70;99.90;;;;;;4983595;28;20054;-54
2022/08/14 03:40:45;;;;;;;14.23;11.90;;;20.80;99.90;;;;;;4979939;28;20425;-54
2022/08/14 03:43:12;;;;;;;14.88;12.38;;;20.70;99.90;;;;;;4979077;28;20468;-54
2022/08/14 03:45:39;;;;;;;14.13;11.70;;;20.70;99.90;;;;;;4978799;28;20054;-54
2022/08/14 03:48:17;;;;;;;13.80;12.40;;;20.70;99.90;;;;;;4980767;28;20042;-54
2022/08/14 03:50:43;;;;;;;14.38;11.98;;;20.70;99.90;;;;;;4979083;28;20055;-53
2022/08/14 03:53:11;;;;;;;13.65;11.25;;;20.70;99.90;;;;;;4980092;28;20054;-55
2022/08/14 03:55:37;;;;;;;14.40;12.90;;;20.70;99.90;;;;;;4978480;28;20090;-55
2022/08/14 03:58:05;;;;;;;12.77;11.40;;;20.70;99.90;;;;;;4979437;28;20053;-55
2022/08/14 04:00:31;;;;;;;13.38;11.55;;;20.70;99.90;;;;;;4980508;28;20045;-55
2022/08/14 04:02:57;;;;;;;14.43;11.75;;;20.60;99.90;;;;;;4977280;28;20098;-55
2022/08/14 04:05:23;;;;;;;15.65;12.20;;;20.70;99.90;;;;;;4979070;28;20057;-54
2022/08/14 04:07:49;;;;;;;14.82;11.52;;;20.60;99.90;;;;;;4978414;28;20078;-54
2022/08/14 04:10:16;;;;;;;14.77;12.80;;;20.60;99.90;;;;;;4979915;28;20065;-54
2022/08/14 04:12:42;;;;;;;13.60;11.98;;;20.60;99.90;;;;;;4977987;28;20058;-54
2022/08/14 04:15:09;;;;;;;16.02;12.63;;;20.60;99.90;;;;;;4978996;28;20102;-55
2022/08/14 04:17:34;;;;;;;14.85;12.48;;;20.50;99.90;;;;;;4980112;28;20526;-54
2022/08/14 04:20:03;;;;;;;13.85;12.27;;;20.60;99.90;;;;;;4978534;28;20043;-54
2022/08/14 04:22:30;;;;;;;16.88;12.57;;;20.50;99.90;;;;;;4980214;28;20154;-55
2022/08/14 04:24:58;;;;;;;15.30;12.20;;;20.50;99.90;;;;;;4978753;28;20066;-55
2022/08/14 04:27:25;;;;;;;15.57;12.40;;;20.60;99.90;;;;;;4979584;28;20038;-55
2022/08/14 04:29:52;;;;;;;14.70;12.20;;;20.60;99.90;;;;;;4979129;28;20043;-55
2022/08/14 04:32:19;;;;;;;15.38;12.35;;;20.50;99.90;;;;;;4978951;28;20058;-55
2022/08/14 04:34:45;;;;;;;16.73;11.73;;;20.50;99.90;;;;;;4980004;28;20039;-56
2022/08/14 04:45:34;;;;;;;15.60;12.82;;;20.50;99.90;;;;;;4997948;28;20057;-55
2022/08/14 04:48:12;;;;;;;13.60;11.75;;;20.40;99.90;;;;;;4999329;28;20047;-54
2022/08/14 04:50:51;;;;;;;14.90;12.27;;;20.40;99.90;;;;;;4997177;28;20042;-53
2022/08/14 04:53:22;;;;;;;13.85;12.10;;;20.50;99.90;;;;;;4998527;28;20050;-54
2022/08/14 04:55:49;;;;;;;14.95;11.82;;;20.50;99.90;;;;;;4997461;28;20049;-55
2022/08/14 04:58:25;;;;;;;16.05;12.52;;;20.50;99.90;;;;;;4997792;28;20034;-54
2022/08/14 05:00:51;;;;;;;14.68;12.18;;;20.50;99.90;;;;;;4999358;28;20066;-55
2022/08/14 05:03:22;;;;;;;14.50;12.77;;;20.60;99.90;;;;;;4997486;28;20042;-54
2022/08/14 05:05:54;;;;;;;15.85;12.68;;;20.60;99.90;;;;;;4997389;28;20038;-55
2022/08/14 05:08:21;;;;;;;14.68;12.82;;;20.70;99.90;;;;;;4997605;28;20061;-52
2022/08/14 05:10:55;;;;;;;14.10;12.60;;;20.70;99.90;;;;;;4998002;28;20060;-55
2022/08/14 05:13:24;;;;;;;14.52;12.05;;;20.70;99.90;;;;;;4997190;28;20065;-53
2022/08/14 05:15:53;;;;;;;16.08;12.40;;;20.70;99.90;;;;;;4990271;28;20066;-52
2022/08/14 05:18:22;;;;;;;14.23;11.75;;;20.80;99.90;;;;;;4979719;28;20061;-53
2022/08/14 05:20:53;;;;;;;14.60;12.57;;;20.90;99.90;;;;;;4978165;28;20047;-53
2022/08/14 05:23:22;;;;;;;14.02;12.13;;;20.90;99.90;;;;;;4979166;28;20051;-54
2022/08/14 05:25:50;;;;;;;13.88;11.90;;;21.00;99.90;;;;;;4978900;28;20396;-54
2022/08/14 05:28:20;;;;;;;13.80;11.93;;;21.00;99.90;;;;;;4978039;28;20057;-55
2022/08/14 05:30:52;;;;;;;13.10;11.67;;;21.10;99.90;;;;;;4979517;28;20053;-54
2022/08/14 05:33:19;;;;;;;;;;;21.10;99.90;;;;;;4978347;28;20611;-53
2022/08/14 05:35:46;;;;;;;14.00;11.13;;;21.20;99.90;;;;;;4979237;28;19922;-55
2022/08/14 05:38:14;;;;;;;14.60;10.88;;;21.30;99.90;;;;;;4986253;28;20046;-51
2022/08/14 05:40:40;;;;;;;13.13;11.05;;;21.40;99.90;;;;;;4997847;28;20027;-53
2022/08/14 05:43:06;;;;;;;13.52;12.13;;;21.40;99.90;;;;;;4998404;28;20044;-52
2022/08/14 05:45:34;;;;;;;12.90;10.80;;;21.40;99.90;;;;;;4995776;28;20637;-51
2022/08/14 05:48:00;;;;;;;12.05;10.35;;;21.50;99.90;;;;;;4995530;28;20053;-50
2022/08/14 05:50:26;;;;;;;13.68;11.15;;;21.60;99.90;;;;;;4992751;28;20046;-52
2022/08/14 05:52:53;;;;;;;12.70;10.48;;;21.60;99.90;;;;;;4995031;28;20497;-51
2022/08/14 05:55:20;;;;;;;12.70;9.90;;;21.70;99.90;;;;;;4994355;28;20046;-53
2022/08/14 05:57:48;;;;;;;12.48;10.88;;;21.80;99.90;;;;;;4994591;28;20059;-48
2022/08/14 06:00:16;;;;;;;13.88;10.52;;;22.00;99.90;;;;;;4994615;28;20077;-49
2022/08/14 06:02:41;;;;;;;13.02;10.30;;;22.00;99.90;;;;;;4993635;28;20102;-52
2022/08/14 06:05:07;;;;;;;12.32;10.15;;;22.10;99.90;;;;;;4981267;28;20073;-50
2022/08/14 06:07:37;;;;;;;10.90;9.55;;;22.20;99.90;;;;;;4996611;28;20077;-52
2022/08/14 06:10:05;;;;;;;12.07;9.23;;;22.30;99.90;;;;;;4998172;28;20061;-53
2022/08/14 06:12:31;;;;;;;12.98;9.10;;;22.40;99.90;;;;;;4997361;28;20054;-51
2022/08/14 06:14:56;;;;;;;12.05;9.20;;;22.50;99.90;;;;;;4997254;28;20050;-49
2022/08/14 06:17:22;;;;;;;11.25;8.63;;;22.50;99.90;;;;;;4978557;28;20039;-52
2022/08/14 06:19:48;;;;;;;10.35;8.40;;;22.70;99.90;;;;;;4992438;28;20058;-49
2022/08/14 06:22:13;;;;;;;11.23;8.52;;;22.70;99.90;;;;;;4979111;28;20152;-49
2022/08/14 06:24:39;;;;;;;10.07;7.97;;;22.90;99.90;;;;;;4976878;28;20046;-50
2022/08/14 06:27:04;;;;;;;11.85;8.30;;;22.90;99.90;;;;;;4978750;28;20106;-52
2022/08/14 06:29:31;;;;;;;15.10;8.00;;;23.00;99.90;;;;;;4976393;28;20053;-48
2022/08/14 06:31:57;;;;;;;9.40;7.78;;;23.10;99.90;;;;;;4976727;28;20454;-54
2022/08/14 06:34:23;;;;;;;12.82;9.30;;;23.20;99.90;;;;;;4977930;28;20050;-51
2022/08/14 06:36:48;;;;;;;11.35;8.05;;;23.30;99.90;;;;;;4991920;28;20054;-53
2022/08/14 06:39:14;;;;;;;11.27;8.10;;;23.40;99.90;;;;;;4995522;28;20039;-50
2022/08/14 06:41:41;;;;;;;9.57;7.45;;;23.50;99.90;;;;;;4996301;28;20046;-51
2022/08/14 06:44:07;;;;;;;12.57;8.18;;;23.60;99.90;;;;;;4998153;28;20510;-53
2022/08/14 06:46:33;;;;;;;10.23;7.43;;;23.70;99.90;;;;;;4996340;28;20050;-51
2022/08/14 06:48:59;;;;;;;11.55;7.75;;;23.70;99.90;;;;;;4997471;28;20194;-53
2022/08/14 06:51:25;;;;;;;9.18;7.30;;;23.80;99.90;;;;;;4997413;28;20046;-52
2022/08/14 06:53:50;;;;;;;10.13;8.60;;;23.80;99.90;;;;;;4996587;28;20061;-52
2022/08/14 06:56:16;;;;;;;10.18;8.10;;;23.80;99.90;;;;;;4997698;28;20042;-53
2022/08/14 06:58:42;;;;;;;10.13;8.50;;;23.80;99.90;;;;;;4994349;28;20038;-49
2022/08/14 07:06:37;;;;;;;12.20;7.90;;;23.90;99.90;;;;;;4996257;28;20783;-50
2022/08/14 07:09:03;;;;;;;11.05;8.00;;;23.80;99.90;;;;;;4997327;28;20062;-55
2022/08/14 07:11:29;;;;;;;9.40;7.50;;;23.90;99.90;;;;;;4986315;28;20055;-53
2022/08/14 07:13:55;;;;;;;10.65;7.82;;;24.00;99.90;;;;;;4984477;28;20058;-51
2022/08/14 07:16:21;;;;;;;10.25;7.53;;;24.10;99.90;;;;;;4989574;28;20073;-53
2022/08/14 07:18:47;;;;;;;11.20;8.63;;;24.20;99.90;;;;;;4996568;28;20042;-53
2022/08/14 07:21:14;;;;;;;10.27;8.55;;;24.30;99.90;;;;;;4995481;28;20118;-54
2022/08/14 07:23:40;;;;;;;13.32;8.00;;;24.30;99.90;;;;;;4994418;28;20058;-52
2022/08/14 07:26:07;;;;;;;9.95;8.07;;;24.40;99.90;;;;;;4997453;28;20819;-52
2022/08/14 07:28:38;;;;;;;11.27;7.75;;;24.50;99.90;;;;;;4995408;28;21016;-52
2022/08/14 07:31:09;;;;;;;11.07;8.52;;;24.60;99.90;;;;;;4990060;28;20517;-52
2022/08/14 07:33:41;;;;;;;10.57;7.88;;;24.50;99.90;;;;;;4995446;28;20196;-52
2022/08/14 07:36:09;;;;;;;10.98;8.05;;;24.50;99.90;;;;;;4995770;28;20074;-52
2022/08/14 07:38:35;;;;;;;11.13;7.32;;;24.60;99.90;;;;;;4996303;28;20047;-52
2022/08/14 07:41:02;;;;;;;10.27;8.40;;;24.70;99.90;;;;;;4995709;28;20122;-52
2022/08/14 07:43:28;;;;;;;9.73;7.88;;;24.80;99.90;;;;;;4996816;28;20049;-53
2022/08/14 07:45:54;;;;;;;10.85;8.00;;;24.90;99.90;;;;;;4995140;28;20046;-52
2022/08/14 07:48:20;;;;;;;10.10;7.57;;;25.00;99.90;;;;;;4994953;28;20084;-55
2022/08/14 07:50:49;;;;;;;11.15;8.20;;;25.00;99.90;;;;;;4995428;28;20038;-53
2022/08/14 07:53:15;;;;;;;9.93;7.95;;;25.10;99.90;;;;;;4995960;28;20147;-53
2022/08/14 07:55:42;;;;;;;9.27;7.63;;;25.00;99.90;;;;;;4995953;28;20046;-52
2022/08/14 07:58:08;;;;;;;11.23;7.57;;;25.20;99.90;;;;;;4995130;28;20948;-53
2022/08/14 08:00:33;;;;;;;9.32;7.22;;;25.30;99.90;;;;;;4996555;28;20042;-51
2022/08/14 08:02:59;;;;;;;8.55;7.22;;;25.30;99.90;;;;;;4990416;28;20106;-54
2022/08/14 08:05:26;;;;;;;10.77;8.25;;;25.40;99.90;;;;;;4996689;28;20049;-51
2022/08/14 08:07:52;;;;;;;10.65;8.30;;;25.40;99.90;;;;;;4993490;28;20046;-52
2022/08/14 08:10:30;;;;;;;9.65;7.55;;;25.40;99.90;;;;;;4995548;28;20110;-54
2022/08/14 08:12:59;;;;;;;10.68;7.97;;;25.50;99.90;;;;;;4996146;28;20049;-54
2022/08/14 08:15:27;;;;;;;9.07;7.25;;;25.50;99.90;;;;;;4991203;28;20066;-52
2022/08/14 08:17:53;;;;;;;9.20;7.55;;;25.60;99.90;;;;;;4983486;28;20050;-51
2022/08/14 08:20:24;;;;;;;9.80;7.25;;;25.80;99.90;;;;;;4984371;28;20081;-51
2022/08/14 08:22:50;;;;;;;8.73;6.90;;;25.70;99.90;;;;;;4981704;28;20565;-54
2022/08/14 08:25:19;;;;;;;8.85;6.72;;;25.80;99.90;;;;;;4975173;28;20046;-48
2022/08/14 08:27:58;;;;;;;9.50;6.55;;;25.80;99.90;;;;;;4975871;28;20067;-52
2022/08/14 08:30:25;;;;;;;9.02;6.93;;;25.80;99.90;;;;;;4976690;28;20061;-52
2022/08/14 08:32:52;;;;;;;8.55;7.00;;;26.10;99.90;;;;;;4975099;28;20051;-54
2022/08/14 08:35:20;;;;;;;8.88;6.60;;;26.00;99.90;;;;;;4976389;28;20050;-51
2022/08/14 08:37:47;;;;;;;8.02;6.35;;;26.00;99.90;;;;;;4975239;28;20506;-51
2022/08/14 08:40:23;;;;;;;9.95;6.63;;;25.90;99.90;;;;;;4976202;28;20051;-54
2022/08/14 08:42:49;;;;;;;9.10;7.05;;;26.10;99.90;;;;;;4976132;28;20049;-53
2022/08/14 08:45:15;;;;;;;8.90;6.68;;;26.20;99.90;;;;;;4975150;28;20074;-54
2022/08/14 08:47:42;;;;;;;8.65;6.45;;;26.30;99.90;;;;;;4976203;28;20042;-52
2022/08/14 08:50:35;;;;;;;9.75;6.53;;;26.30;99.90;;;;;;4974233;28;20522;-53
2022/08/14 08:53:03;;;;;;;7.57;6.18;;;26.30;99.90;;;;;;4976200;28;20628;-54
2022/08/14 08:55:39;;;;;;;9.35;6.28;;;26.40;99.90;;;;;;4975510;28;20035;-54
2022/08/14 08:58:10;;;;;;;8.50;6.40;;;26.60;99.90;;;;;;4974450;28;20050;-52
2022/08/14 09:00:37;;;;;;;8.43;6.32;;;26.60;99.90;;;;;;4975966;28;20495;-50
2022/08/14 09:03:07;;;;;;;8.80;6.20;;;26.70;99.90;;;;;;4974693;28;20442;-52
2022/08/14 09:05:35;;;;;;;8.65;6.32;;;26.80;99.90;;;;;;4976255;28;20082;-51
2022/08/14 09:08:14;;;;;;;7.60;5.88;;;26.80;99.90;;;;;;4974676;28;20058;-50
2022/08/14 09:10:40;;;;;;;8.05;6.13;;;26.80;99.80;;;;;;4974754;28;20115;-55
2022/08/14 09:13:07;;;;;;;8.95;6.05;;;26.80;99.90;;;;;;4975064;28;20074;-52
2022/08/14 09:15:32;;;;;;;8.10;6.30;;;27.00;99.90;;;;;;4974629;28;20035;-51
2022/08/14 09:17:59;;;;;;;9.15;6.45;;;27.00;99.80;;;;;;4976570;28;20047;-52
2022/08/14 09:20:25;;;;;;;9.38;5.93;;;27.00;99.90;;;;;;4972994;28;20082;-52
2022/08/14 09:22:52;;;;;;;9.77;6.65;;;27.00;99.70;;;;;;4975636;28;20047;-54
2022/08/14 09:25:19;;;;;;;8.35;6.25;;;27.00;99.20;;;;;;4975179;28;20057;-52
2022/08/14 09:27:45;;;;;;;7.63;5.72;;;27.10;99.30;;;;;;4975087;28;20093;-55
2022/08/14 09:30:11;;;;;;;9.30;5.75;;;26.90;99.10;;;;;;4975678;28;20047;-50
2022/08/14 09:33:03;;;;;;;9.13;5.72;;;27.00;99.20;;;;;;4973065;28;20065;-51
2022/08/14 09:35:32;;;;;;;9.20;5.88;;;27.00;98.70;;;;;;4966505;28;20051;-52
2022/08/14 09:38:23;;;;;;;7.90;5.38;;;27.20;98.40;;;;;;4981000;28;20050;-52
2022/08/14 09:41:22;;;;;;;7.22;5.78;;;27.30;98.70;;;;;;4987226;28;21072;-52
2022/08/14 09:44:02;;;;;;;8.20;5.88;;;27.20;98.30;;;;;;4993103;28;20054;-51
2022/08/14 09:46:28;;;;;;;8.75;6.03;;;27.30;98.80;;;;;;4997314;28;20058;-51
2022/08/14 09:49:12;;;;;;;8.35;5.95;;;27.50;99.10;;;;;;4996882;28;20054;-54
2022/08/14 10:08:20;;;;;;;8.20;5.63;;;27.90;97.70;;;;;;5181206;23;20138;-61
2022/08/14 10:10:47;;;;;;;7.28;5.45;;;28.00;97.70;;;;;;5254301;24;20141;-61
2022/08/14 10:14:05;;;;;;;8.02;5.40;;;27.90;98.00;;;;;;5295955;24;20070;-58
2022/08/14 10:16:41;;;;;;;8.07;5.57;;;28.10;97.60;;;;;;4788378;30;20059;-58
2022/08/14 10:19:10;;;;;;;8.20;5.82;;;27.80;97.70;;;;;;4803142;29;20074;-58
2022/08/14 10:21:42;;;;;;;7.60;5.30;;;27.80;97.80;;;;;;4795497;29;20102;-50
2022/08/14 10:24:12;;;;;;;;;;;27.80;97.50;;;;;;4810491;29;20210;-55
2022/08/14 10:26:38;;;;;;;7.60;5.55;;;27.80;97.20;;;;;;4810777;29;19929;-52
2022/08/14 10:29:06;;;;;;;7.90;5.80;;;27.90;97.70;;;;;;4812033;29;20744;-51
2022/08/14 10:31:33;;;;;;;10.52;6.07;;;28.00;97.90;;;;;;4815002;29;20086;-53
2022/08/14 10:34:10;;;;;;;7.80;5.57;;;28.10;97.90;;;;;;4813673;29;20043;-50
2022/08/14 10:36:42;;;;;;;7.32;5.20;;;28.20;97.60;;;;;;4799960;29;20097;-49
2022/08/14 10:39:18;;;;;;;8.30;5.68;;;28.20;97.40;;;;;;4799546;29;20051;-51
2022/08/14 10:41:46;;;;;;;7.13;5.68;;;28.20;97.30;;;;;;4812525;29;20169;-49
2022/08/14 10:44:15;;;;;;;7.75;5.78;;;28.40;97.80;;;;;;4797474;29;20111;-48
2022/08/14 10:46:42;;;;;;;6.95;5.45;;;28.30;97.40;;;;;;4815297;29;20105;-51
2022/08/14 10:49:19;;;;;;;8.70;5.90;;;28.50;97.40;;;;;;4850424;29;20085;-48
2022/08/14 10:52:02;;;;;;;6.75;5.13;;;28.70;97.20;;;;;;4850745;29;20050;-50
2022/08/14 10:54:40;;;;;;;8.15;5.40;;;28.60;96.70;;;;;;4849977;29;20057;-51
2022/08/14 10:57:20;;;;;;;7.05;5.00;;;28.50;97.10;;;;;;4834844;29;20057;-49
2022/08/14 10:59:52;;;;;;;8.27;5.07;;;28.30;96.20;;;;;;4833453;29;20069;-50
2022/08/14 11:02:30;;;;;;;7.50;5.10;;;28.50;96.80;;;;;;4851604;29;20061;-51
2022/08/14 11:05:17;;;;;;;8.82;5.45;;;28.60;96.30;;;;;;4850088;29;20078;-48
2022/08/14 11:07:55;;;;;;;7.47;5.35;;;28.60;96.50;;;;;;4850279;29;20094;-51
2022/08/14 11:10:37;;;;;;;7.13;5.63;;;28.70;96.60;;;;;;4850861;29;20069;-51
2022/08/14 11:13:03;;;;;;;8.85;5.03;;;28.90;96.50;;;;;;4849801;29;20053;-52
2022/08/14 11:15:30;;;;;;;7.30;5.15;;;28.90;96.50;;;;;;4846834;29;20058;-51
2022/08/14 11:17:55;;;;;;;7.65;5.60;;;29.00;96.20;;;;;;4868132;29;20061;-51
2022/08/14 11:20:25;;;;;;;8.20;5.13;;;28.90;96.20;;;;;;4868000;29;20073;-51
2022/08/14 11:22:53;;;;;;;6.80;4.85;;;29.20;96.10;;;;;;4868566;29;20044;-53
2022/08/14 11:25:22;;;;;;;6.68;5.10;;;29.20;95.80;;;;;;4868432;29;20077;-52
2022/08/14 11:27:50;;;;;;;8.55;5.03;;;29.30;95.70;;;;;;4869590;29;20058;-53
2022/08/14 11:30:21;;;;;;;8.82;4.88;;;29.10;95.90;;;;;;4851874;29;20054;-51
2022/08/14 11:32:48;;;;;;;6.88;5.00;;;29.30;95.70;;;;;;4869004;29;20049;-49
2022/08/14 11:35:25;;;;;;;8.38;5.95;;;29.30;95.40;;;;;;4868850;29;20101;-52
2022/08/14 11:37:55;;;;;;;8.48;5.40;;;29.40;95.50;;;;;;4851583;29;20045;-52
2022/08/14 11:40:23;;;;;;;7.13;5.00;;;29.40;95.60;;;;;;4869387;29;20068;-52
2022/08/14 11:42:57;;;;;;;7.20;5.10;;;29.40;95.50;;;;;;4868308;29;20041;-54
2022/08/14 11:45:26;;;;;;;7.30;5.45;;;29.50;95.50;;;;;;4873801;29;20128;-51
2022/08/14 11:47:54;;;;;;;7.68;5.60;;;29.50;95.00;;;;;;4882201;29;20157;-53
2022/08/14 11:50:26;;;;;;;6.93;5.30;;;29.40;95.10;;;;;;4887195;29;20585;-51
2022/08/14 11:52:54;;;;;;;7.93;5.78;;;29.60;95.20;;;;;;4888004;29;20045;-50
2022/08/14 11:55:20;;;;;;;8.98;5.60;;;29.40;95.30;;;;;;4886862;29;20049;-52
2022/08/14 11:57:46;;;;;;;8.80;5.90;;;29.60;95.40;;;;;;4887959;29;20101;-53
2022/08/14 12:00:17;;;;;;;8.63;5.70;;;29.70;95.50;;;;;;4886879;29;20053;-53
2022/08/14 12:02:57;;;;;;;7.90;6.53;;;29.70;94.90;;;;;;4887569;29;20068;-52
2022/08/14 12:05:31;;;;;;;7.10;5.18;;;29.70;94.40;;;;;;4887353;29;20089;-52
2022/08/14 12:07:59;;;;;;;7.57;5.50;;;29.70;94.60;;;;;;4886915;29;20053;-52
2022/08/14 12:10:25;;;;;;;9.45;5.50;;;29.70;94.50;;;;;;4887362;29;20033;-51
2022/08/14 12:12:55;;;;;;;8.30;5.72;;;29.90;94.90;;;;;;4886643;29;20092;-51
2022/08/14 12:15:30;;;;;;;9.55;5.03;;;29.90;93.80;;;;;;4886116;29;20049;-51
2022/08/14 12:17:55;;;;;;;8.05;5.30;;;30.00;94.20;;;;;;4885741;29;20101;-52
2022/08/14 12:20:32;;;;;;;9.73;6.65;;;30.20;94.40;;;;;;4886115;29;20064;-52
2022/08/14 12:23:01;;;;;;;7.57;5.65;;;30.00;93.80;;;;;;4875839;29;20042;-52
2022/08/14 12:25:27;;;;;;;6.80;5.13;;;30.00;94.00;;;;;;4866096;29;20053;-51
2022/08/14 12:27:56;;;;;;;7.90;6.22;;;30.10;94.10;;;;;;4867549;29;20049;-53
2022/08/14 12:30:47;;;;;;;7.70;5.50;;;30.00;94.20;;;;;;4849984;29;20419;-48
2022/08/14 12:33:24;;;;;;;9.15;5.72;;;30.10;93.40;;;;;;4867391;29;20077;-52
2022/08/14 12:35:52;;;;;;;8.85;5.60;;;30.10;93.80;;;;;;4867489;29;20068;-51
2022/08/14 12:38:18;;;;;;;7.90;5.93;;;30.10;93.90;;;;;;4866276;29;20049;-49
2022/08/14 12:40:52;;;;;;;7.60;5.90;;;30.30;93.90;;;;;;4867138;29;20048;-52
2022/08/14 12:43:19;;;;;;;8.55;6.07;;;30.30;93.40;;;;;;4864805;29;20205;-54
2022/08/14 12:45:53;;;;;;;8.73;6.10;;;30.40;93.30;;;;;;4866760;29;20050;-50
2022/08/14 12:48:21;;;;;;;8.73;5.97;;;30.40;93.50;;;;;;4866509;29;20086;-51
2022/08/14 12:50:50;;;;;;;9.50;5.68;;;30.30;93.50;;;;;;4866233;29;20136;-50
2022/08/14 12:53:17;;;;;;;7.57;5.90;;;30.20;93.40;;;;;;4850549;29;20088;-53
2022/08/14 12:55:44;;;;;;;8.52;5.75;;;30.30;93.40;;;;;;4849334;29;20060;-51
2022/08/14 12:58:11;;;;;;;7.72;5.68;;;30.10;93.10;;;;;;4867444;29;20105;-50
2022/08/14 13:00:47;;;;;;;7.30;5.15;;;29.90;93.50;;;;;;4849451;29;20056;-53
2022/08/14 13:03:28;;;;;;;8.30;5.45;;;30.00;93.20;;;;;;4866043;29;20045;-55
2022/08/14 13:05:55;;;;;;;8.90;5.88;;;30.20;93.10;;;;;;4851023;29;20178;-52
2022/08/14 13:08:21;;;;;;;8.63;5.57;;;30.00;93.00;;;;;;4865467;29;20113;-54
2022/08/14 13:10:48;;;;;;;8.05;5.82;;;30.20;93.10;;;;;;4867558;29;20077;-53
2022/08/14 13:13:19;;;;;;;8.00;5.88;;;30.20;92.90;;;;;;4869742;29;20058;-52
2022/08/14 13:15:46;;;;;;;7.45;5.28;;;30.10;92.90;;;;;;4870755;29;20064;-50
2022/08/14 13:18:16;;;;;;;9.77;5.30;;;30.30;93.20;;;;;;4870552;29;20510;-52
2022/08/14 13:20:42;;;;;;;10.95;6.50;;;30.50;92.90;;;;;;4870055;29;20038;-51
2022/08/14 13:23:09;;;;;;;7.72;5.75;;;30.50;93.10;;;;;;4871048;29;20049;-53